sensor_id;sensor_type;location;lat;lon;timestamp;temperature;humidity
21244;DHT22;10780;50.942;4.028;2023-03-03T00:02:22;3.50;99.90
21244;DHT22;10780;50.942;4.028;2023-03-03T00:04:48;3.40;99.90
21244;DHT22;10780;50.942;4.028;2023-03-03T00:07:13;3.40;99.90
21244;DHT22;10780;50.942;4.028;2023-03-03T00:09:46;3.40;99.90
21244;DHT22;10780;50.942;4.028;2023-03-03T00:12:26;3.30;99.90
21244;DHT22;10780;50.942;4.028;2023-03-03T00:14:52;3.20;99.90
21244;DHT22;10780;50.942;4.028;2023-03-03T00:17:22;3.10;99.90
21244;DHT22;10780;50.942;4.028;2023-03-03T00:19:48;3.20;99.90
21244;DHT22;10780;50.942;4.028;2023-03-03T00:22:36;3.20;99.90
21244;DHT22;10780;50.942;4.028;2023-03-03T00:25:27;3.10;99.90
21244;DHT22;10780;50.942;4.028;2023-03-03T00:27:53;3.00;99.90
21244;DHT22;10780;50.942;4.028;2023-03-03T00:30:23;3.10;99.90
21244;DHT22;10780;50.942;4.028;2023-03-03T00:32:50;3.10;99.90
21244;DHT22;10780;50.942;4.028;2023-03-03T00:37:59;3.00;99.90
21244;DHT22;10780;50.942;4.028;2023-03-03T00:40:37;3.10;99.90
21244;DHT22;10780;50.942;4.028;2023-03-03T00:43:18;3.00;99.90
21244;DHT22;10780;50.942;4.028;2023-03-03T00:45:52;3.10;99.90
21244;DHT22;10780;50.942;4.028;2023-03-03T00:48:30;3.20;99.90
21244;DHT22;10780;50.942;4.028;2023-03-03T00:51:00;3.20;99.90
21244;DHT22;10780;50.942;4.028;2023-03-03T00:53:28;3.20;99.90
21244;DHT22;10780;50.942;4.028;2023-03-03T00:55:54;3.10;99.90
21244;DHT22;10780;50.942;4.028;2023-03-03T00:58:20;2.80;99.90
21244;DHT22;10780;50.942;4.028;2023-03-03T01:00:51;2.80;99.90
21244;DHT22;10780;50.942;4.028;2023-03-03T01:03:20;2.80;99.90
21244;DHT22;10780;50.942;4.028;2023-03-03T01:05:46;2.80;99.90
21244;DHT22;10780;50.942;4.028;2023-03-03T01:08:13;2.70;99.90
21244;DHT22;10780;50.942;4.028;2023-03-03T01:10:43;2.60;99.90
21244;DHT22;10780;50.942;4.028;2023-03-03T01:13:09;2.80;99.90
21244;DHT22;10780;50.942;4.028;2023-03-03T01:15:35;2.90;99.90
21244;DHT22;10780;50.942;4.028;2023-03-03T01:18:02;2.90;99.90
21244;DHT22;10780;50.942;4.028;2023-03-03T01:20:28;2.80;99.90
21244;DHT22;10780;50.942;4.028;2023-03-03T01:22:53;2.80;99.90
21244;DHT22;10780;50.942;4.028;2023-03-03T01:25:19;2.80;99.90
21244;DHT22;10780;50.942;4.028;2023-03-03T01:27:45;2.80;99.90
21244;DHT22;10780;50.942;4.028;2023-03-03T01:30:10;2.70;99.90
21244;DHT22;10780;50.942;4.028;2023-03-03T01:32:36;2.70;99.90
21244;DHT22;10780;50.942;4.028;2023-03-03T01:35:02;2.60;99.90
21244;DHT22;10780;50.942;4.028;2023-03-03T01:37:27;2.70;99.90
21244;DHT22;10780;50.942;4.028;2023-03-03T01:39:53;2.60;99.90
21244;DHT22;10780;50.942;4.028;2023-03-03T01:42:20;2.70;99.90
21244;DHT22;10780;50.942;4.028;2023-03-03T01:44:46;2.60;99.90
21244;DHT22;10780;50.942;4.028;2023-03-03T01:47:21;2.60;99.90
21244;DHT22;10780;50.942;4.028;2023-03-03T01:49:55;2.50;99.90
21244;DHT22;10780;50.942;4.028;2023-03-03T01:52:32;2.50;99.90
21244;DHT22;10780;50.942;4.028;2023-03-03T01:55:05;2.40;99.90
21244;DHT22;10780;50.942;4.028;2023-03-03T01:57:37;2.50;99.90
21244;DHT22;10780;50.942;4.028;2023-03-03T02:00:06;2.50;99.90
21244;DHT22;10780;50.942;4.028;2023-03-03T02:02:32;2.50;99.90
21244;DHT22;10780;50.942;4.028;2023-03-03T02:04:59;2.60;99.90
21244;DHT22;10780;50.942;4.028;2023-03-03T02:07:26;2.50;99.90
21244;DHT22;10780;50.942;4.028;2023-03-03T02:10:08;2.50;99.90
21244;DHT22;10780;50.942;4.028;2023-03-03T02:12:40;2.40;99.90
21244;DHT22;10780;50.942;4.028;2023-03-03T02:15:30;2.30;99.90
21244;DHT22;10780;50.942;4.028;2023-03-03T02:18:13;2.20;99.90
21244;DHT22;10780;50.942;4.028;2023-03-03T02:26:21;1.80;99.90
21244;DHT22;10780;50.942;4.028;2023-03-03T02:28:48;1.80;99.90
21244;DHT22;10780;50.942;4.028;2023-03-03T02:31:17;1.70;99.90
21244;DHT22;10780;50.942;4.028;2023-03-03T02:33:46;1.60;99.90
21244;DHT22;10780;50.942;4.028;2023-03-03T02:36:17;1.60;99.90
21244;DHT22;10780;50.942;4.028;2023-03-03T02:44:26;1.50;99.90
21244;DHT22;10780;50.942;4.028;2023-03-03T02:46:53;1.60;99.90
21244;DHT22;10780;50.942;4.028;2023-03-03T02:49:25;1.50;99.90
21244;DHT22;10780;50.942;4.028;2023-03-03T02:51:51;1.60;99.90
21244;DHT22;10780;50.942;4.028;2023-03-03T02:54:19;1.50;99.90
21244;DHT22;10780;50.942;4.028;2023-03-03T02:56:45;1.50;99.90
21244;DHT22;10780;50.942;4.028;2023-03-03T02:59:11;1.60;99.90
21244;DHT22;10780;50.942;4.028;2023-03-03T03:01:37;1.70;99.90
21244;DHT22;10780;50.942;4.028;2023-03-03T03:04:09;1.70;99.90
21244;DHT22;10780;50.942;4.028;2023-03-03T03:06:35;1.90;99.90
21244;DHT22;10780;50.942;4.028;2023-03-03T03:09:02;1.80;99.90
21244;DHT22;10780;50.942;4.028;2023-03-03T03:11:28;1.70;99.90
21244;DHT22;10780;50.942;4.028;2023-03-03T03:13:54;1.60;99.90
21244;DHT22;10780;50.942;4.028;2023-03-03T03:16:19;1.60;99.90
21244;DHT22;10780;50.942;4.028;2023-03-03T03:18:45;1.40;99.90
21244;DHT22;10780;50.942;4.028;2023-03-03T03:21:12;1.40;99.90
21244;DHT22;10780;50.942;4.028;2023-03-03T03:23:38;1.50;99.90
21244;DHT22;10780;50.942;4.028;2023-03-03T03:26:05;1.40;99.90
21244;DHT22;10780;50.942;4.028;2023-03-03T03:28:30;1.30;99.90
21244;DHT22;10780;50.942;4.028;2023-03-03T03:30:56;1.30;99.90
21244;DHT22;10780;50.942;4.028;2023-03-03T03:33:23;1.20;99.90
21244;DHT22;10780;50.942;4.028;2023-03-03T03:35:49;1.20;99.90
21244;DHT22;10780;50.942;4.028;2023-03-03T03:38:15;1.20;99.90
21244;DHT22;10780;50.942;4.028;2023-03-03T03:40:42;1.20;99.90
21244;DHT22;10780;50.942;4.028;2023-03-03T03:43:07;1.20;99.90
21244;DHT22;10780;50.942;4.028;2023-03-03T03:45:33;1.20;99.90
21244;DHT22;10780;50.942;4.028;2023-03-03T03:47:59;1.10;99.90
21244;DHT22;10780;50.942;4.028;2023-03-03T03:50:25;1.30;99.90
21244;DHT22;10780;50.942;4.028;2023-03-03T03:52:50;1.40;99.90
21244;DHT22;10780;50.942;4.028;2023-03-03T03:55:16;1.50;99.90
21244;DHT22;10780;50.942;4.028;2023-03-03T03:57:42;1.40;99.90
21244;DHT22;10780;50.942;4.028;2023-03-03T04:00:10;1.40;99.90
21244;DHT22;10780;50.942;4.028;2023-03-03T04:02:36;1.30;99.90
21244;DHT22;10780;50.942;4.028;2023-03-03T04:05:02;1.40;99.90
21244;DHT22;10780;50.942;4.028;2023-03-03T04:07:28;1.50;99.90
21244;DHT22;10780;50.942;4.028;2023-03-03T04:09:54;1.60;99.90
21244;DHT22;10780;50.942;4.028;2023-03-03T04:12:19;1.60;99.90
21244;DHT22;10780;50.942;4.028;2023-03-03T04:14:45;1.50;99.90
21244;DHT22;10780;50.942;4.028;2023-03-03T04:17:21;1.40;99.90
21244;DHT22;10780;50.942;4.028;2023-03-03T04:19:52;1.30;99.90
21244;DHT22;10780;50.942;4.028;2023-03-03T04:22:17;1.30;99.90
21244;DHT22;10780;50.942;4.028;2023-03-03T04:24:43;1.20;99.90
21244;DHT22;10780;50.942;4.028;2023-03-03T04:27:09;1.20;99.90
21244;DHT22;10780;50.942;4.028;2023-03-03T04:29:35;1.20;99.90
21244;DHT22;10780;50.942;4.028;2023-03-03T04:32:00;1.20;99.90
21244;DHT22;10780;50.942;4.028;2023-03-03T04:34:26;1.20;99.90
21244;DHT22;10780;50.942;4.028;2023-03-03T04:36:52;1.20;99.90
21244;DHT22;10780;50.942;4.028;2023-03-03T04:39:18;1.30;99.90
21244;DHT22;10780;50.942;4.028;2023-03-03T04:41:43;1.30;99.90
21244;DHT22;10780;50.942;4.028;2023-03-03T04:44:09;1.30;99.90
21244;DHT22;10780;50.942;4.028;2023-03-03T04:46:34;1.30;99.90
21244;DHT22;10780;50.942;4.028;2023-03-03T04:49:00;1.30;99.90
21244;DHT22;10780;50.942;4.028;2023-03-03T04:51:26;1.40;99.90
21244;DHT22;10780;50.942;4.028;2023-03-03T04:53:51;1.30;99.90
21244;DHT22;10780;50.942;4.028;2023-03-03T04:56:17;1.30;99.90
21244;DHT22;10780;50.942;4.028;2023-03-03T04:58:43;1.30;99.90
21244;DHT22;10780;50.942;4.028;2023-03-03T05:01:12;1.30;99.90
21244;DHT22;10780;50.942;4.028;2023-03-03T05:03:38;1.40;99.90
21244;DHT22;10780;50.942;4.028;2023-03-03T05:06:05;1.50;99.90
21244;DHT22;10780;50.942;4.028;2023-03-03T05:08:30;1.70;99.90
21244;DHT22;10780;50.942;4.028;2023-03-03T05:10:56;1.80;99.90
21244;DHT22;10780;50.942;4.028;2023-03-03T05:13:24;1.90;99.90
21244;DHT22;10780;50.942;4.028;2023-03-03T05:15:53;1.90;99.90
21244;DHT22;10780;50.942;4.028;2023-03-03T05:18:23;2.00;99.90
21244;DHT22;10780;50.942;4.028;2023-03-03T05:20:49;2.20;99.90
21244;DHT22;10780;50.942;4.028;2023-03-03T05:23:16;2.20;99.90
21244;DHT22;10780;50.942;4.028;2023-03-03T05:25:42;2.30;99.90
21244;DHT22;10780;50.942;4.028;2023-03-03T05:28:08;2.20;99.90
21244;DHT22;10780;50.942;4.028;2023-03-03T05:30:34;2.30;99.90
21244;DHT22;10780;50.942;4.028;2023-03-03T05:33:00;2.40;99.90
21244;DHT22;10780;50.942;4.028;2023-03-03T05:35:26;2.40;99.90
21244;DHT22;10780;50.942;4.028;2023-03-03T05:37:51;2.30;99.90
21244;DHT22;10780;50.942;4.028;2023-03-03T05:40:17;2.40;99.90
21244;DHT22;10780;50.942;4.028;2023-03-03T05:42:43;2.50;99.90
21244;DHT22;10780;50.942;4.028;2023-03-03T05:45:10;2.50;99.90
21244;DHT22;10780;50.942;4.028;2023-03-03T05:47:36;2.50;99.90
21244;DHT22;10780;50.942;4.028;2023-03-03T05:50:01;2.60;99.90
21244;DHT22;10780;50.942;4.028;2023-03-03T05:52:27;2.50;99.90
21244;DHT22;10780;50.942;4.028;2023-03-03T05:54:53;2.60;99.90
21244;DHT22;10780;50.942;4.028;2023-03-03T05:57:18;2.60;99.90
21244;DHT22;10780;50.942;4.028;2023-03-03T05:59:44;2.60;99.90
21244;DHT22;10780;50.942;4.028;2023-03-03T06:02:09;2.50;99.90
21244;DHT22;10780;50.942;4.028;2023-03-03T06:04:35;2.40;99.90
21244;DHT22;10780;50.942;4.028;2023-03-03T06:07:01;2.40;99.90
21244;DHT22;10780;50.942;4.028;2023-03-03T06:09:27;2.50;99.90
21244;DHT22;10780;50.942;4.028;2023-03-03T06:11:52;2.50;99.90
21244;DHT22;10780;50.942;4.028;2023-03-03T06:14:19;2.40;99.90
21244;DHT22;10780;50.942;4.028;2023-03-03T06:16:48;2.40;99.90
21244;DHT22;10780;50.942;4.028;2023-03-03T06:19:14;2.50;99.90
21244;DHT22;10780;50.942;4.028;2023-03-03T06:21:40;2.50;99.90
21244;DHT22;10780;50.942;4.028;2023-03-03T06:24:06;2.60;99.90
21244;DHT22;10780;50.942;4.028;2023-03-03T06:26:32;2.60;99.90
21244;DHT22;10780;50.942;4.028;2023-03-03T06:28:58;2.60;99.90
21244;DHT22;10780;50.942;4.028;2023-03-03T06:31:24;2.50;99.90
21244;DHT22;10780;50.942;4.028;2023-03-03T06:33:50;2.50;99.90
21244;DHT22;10780;50.942;4.028;2023-03-03T06:36:17;2.60;99.90
21244;DHT22;10780;50.942;4.028;2023-03-03T06:38:43;2.60;99.90
21244;DHT22;10780;50.942;4.028;2023-03-03T06:41:09;2.60;99.90
21244;DHT22;10780;50.942;4.028;2023-03-03T06:43:35;2.60;99.90
21244;DHT22;10780;50.942;4.028;2023-03-03T06:46:02;2.60;99.90
21244;DHT22;10780;50.942;4.028;2023-03-03T06:48:31;2.70;99.90
21244;DHT22;10780;50.942;4.028;2023-03-03T06:50:59;2.60;99.90
21244;DHT22;10780;50.942;4.028;2023-03-03T06:53:26;2.70;99.90
21244;DHT22;10780;50.942;4.028;2023-03-03T06:55:54;2.60;99.90
21244;DHT22;10780;50.942;4.028;2023-03-03T06:58:21;2.60;99.90
21244;DHT22;10780;50.942;4.028;2023-03-03T07:00:55;2.50;99.90
21244;DHT22;10780;50.942;4.028;2023-03-03T07:03:41;2.60;99.90
21244;DHT22;10780;50.942;4.028;2023-03-03T07:06:26;2.70;99.90
21244;DHT22;10780;50.942;4.028;2023-03-03T07:08:53;2.70;99.90
21244;DHT22;10780;50.942;4.028;2023-03-03T07:11:22;2.80;99.90
21244;DHT22;10780;50.942;4.028;2023-03-03T07:13:51;2.90;99.90
21244;DHT22;10780;50.942;4.028;2023-03-03T07:16:24;3.00;99.90
21244;DHT22;10780;50.942;4.028;2023-03-03T07:18:53;3.00;99.90
21244;DHT22;10780;50.942;4.028;2023-03-03T07:21:24;3.00;99.90
21244;DHT22;10780;50.942;4.028;2023-03-03T07:23:52;3.00;99.90
21244;DHT22;10780;50.942;4.028;2023-03-03T07:26:25;3.00;99.90
21244;DHT22;10780;50.942;4.028;2023-03-03T07:32:56;3.00;99.90
21244;DHT22;10780;50.942;4.028;2023-03-03T07:34:57;3.20;99.90
21244;DHT22;10780;50.942;4.028;2023-03-03T07:37:28;3.20;99.90
21244;DHT22;10780;50.942;4.028;2023-03-03T07:39:55;3.20;99.90
21244;DHT22;10780;50.942;4.028;2023-03-03T07:42:23;3.20;99.90
21244;DHT22;10780;50.942;4.028;2023-03-03T07:44:57;3.10;99.90
21244;DHT22;10780;50.942;4.028;2023-03-03T07:47:29;3.30;99.90
21244;DHT22;10780;50.942;4.028;2023-03-03T07:50:10;3.40;99.90
21244;DHT22;10780;50.942;4.028;2023-03-03T07:52:43;3.40;99.90
21244;DHT22;10780;50.942;4.028;2023-03-03T07:55:40;3.40;99.90
21244;DHT22;10780;50.942;4.028;2023-03-03T08:03:50;3.60;99.90
21244;DHT22;10780;50.942;4.028;2023-03-03T08:06:39;3.70;99.90
21244;DHT22;10780;50.942;4.028;2023-03-03T08:14:10;3.70;99.90
21244;DHT22;10780;50.942;4.028;2023-03-03T08:16:39;3.70;99.90
21244;DHT22;10780;50.942;4.028;2023-03-03T08:19:05;3.80;99.90
21244;DHT22;10780;50.942;4.028;2023-03-03T08:21:32;3.80;99.90
21244;DHT22;10780;50.942;4.028;2023-03-03T08:23:59;3.90;99.90
21244;DHT22;10780;50.942;4.028;2023-03-03T08:26:25;4.10;99.90
21244;DHT22;10780;50.942;4.028;2023-03-03T08:28:51;4.20;99.90
21244;DHT22;10780;50.942;4.028;2023-03-03T08:31:18;4.20;99.90
21244;DHT22;10780;50.942;4.028;2023-03-03T08:33:44;4.10;99.90
21244;DHT22;10780;50.942;4.028;2023-03-03T08:36:13;4.00;99.90
21244;DHT22;10780;50.942;4.028;2023-03-03T08:38:40;4.20;99.90
21244;DHT22;10780;50.942;4.028;2023-03-03T08:41:06;4.30;99.90
21244;DHT22;10780;50.942;4.028;2023-03-03T08:43:32;4.50;99.90
21244;DHT22;10780;50.942;4.028;2023-03-03T08:46:00;4.60;99.90
21244;DHT22;10780;50.942;4.028;2023-03-03T08:48:27;4.70;99.90
21244;DHT22;10780;50.942;4.028;2023-03-03T08:50:53;4.70;99.90
21244;DHT22;10780;50.942;4.028;2023-03-03T08:53:19;4.80;99.90
21244;DHT22;10780;50.942;4.028;2023-03-03T08:55:46;4.90;99.90
21244;DHT22;10780;50.942;4.028;2023-03-03T08:58:13;4.70;99.90
21244;DHT22;10780;50.942;4.028;2023-03-03T09:00:39;4.80;99.90
21244;DHT22;10780;50.942;4.028;2023-03-03T09:03:06;4.90;99.90
21244;DHT22;10780;50.942;4.028;2023-03-03T09:05:32;4.80;99.90
21244;DHT22;10780;50.942;4.028;2023-03-03T09:07:59;4.60;99.90
21244;DHT22;10780;50.942;4.028;2023-03-03T09:10:31;4.80;99.90
21244;DHT22;10780;50.942;4.028;2023-03-03T09:12:59;4.90;99.90
21244;DHT22;10780;50.942;4.028;2023-03-03T09:15:33;4.80;99.90
21244;DHT22;10780;50.942;4.028;2023-03-03T09:18:21;4.80;99.90
21244;DHT22;10780;50.942;4.028;2023-03-03T09:20:53;4.90;99.90
21244;DHT22;10780;50.942;4.028;2023-03-03T09:23:32;4.80;99.90
21244;DHT22;10780;50.942;4.028;2023-03-03T09:28:52;4.80;99.90
21244;DHT22;10780;50.942;4.028;2023-03-03T09:31:35;5.00;99.90
21244;DHT22;10780;50.942;4.028;2023-03-03T09:34:15;5.10;99.90
21244;DHT22;10780;50.942;4.028;2023-03-03T09:36:40;5.20;99.90
21244;DHT22;10780;50.942;4.028;2023-03-03T09:39:26;5.20;99.90
21244;DHT22;10780;50.942;4.028;2023-03-03T09:42:11;5.20;99.90
21244;DHT22;10780;50.942;4.028;2023-03-03T10:00:48;5.40;99.90
21244;DHT22;10780;50.942;4.028;2023-03-03T10:06:03;5.50;99.90
21244;DHT22;10780;50.942;4.028;2023-03-03T10:19:40;6.10;99.90
21244;DHT22;10780;50.942;4.028;2023-03-03T10:30:47;5.90;99.90
21244;DHT22;10780;50.942;4.028;2023-03-03T10:42:21;6.30;99.90
21244;DHT22;10780;50.942;4.028;2023-03-03T10:45:03;6.50;99.90
21244;DHT22;10780;50.942;4.028;2023-03-03T10:50:43;7.10;99.90
21244;DHT22;10780;50.942;4.028;2023-03-03T10:56:14;7.80;99.90
21244;DHT22;10780;50.942;4.028;2023-03-03T11:04:29;8.00;99.90
21244;DHT22;10780;50.942;4.028;2023-03-03T11:07:07;8.00;99.90
21244;DHT22;10780;50.942;4.028;2023-03-03T11:09:46;7.80;99.90
21244;DHT22;10780;50.942;4.028;2023-03-03T11:12:23;7.50;99.90
21244;DHT22;10780;50.942;4.028;2023-03-03T11:26:18;6.90;99.90
21244;DHT22;10780;50.942;4.028;2023-03-03T11:28:58;7.00;99.90
21244;DHT22;10780;50.942;4.028;2023-03-03T11:31:57;7.10;99.90
21244;DHT22;10780;50.942;4.028;2023-03-03T11:34:44;7.30;99.90
21244;DHT22;10780;50.942;4.028;2023-03-03T11:37:23;7.40;99.90
21244;DHT22;10780;50.942;4.028;2023-03-03T11:39:52;7.60;99.90
21244;DHT22;10780;50.942;4.028;2023-03-03T11:45:26;7.80;99.90
21244;DHT22;10780;50.942;4.028;2023-03-03T11:51:07;7.70;99.90
21244;DHT22;10780;50.942;4.028;2023-03-03T11:56:41;7.80;99.90
21244;DHT22;10780;50.942;4.028;2023-03-03T12:02:03;7.40;99.90
21244;DHT22;10780;50.942;4.028;2023-03-03T12:04:46;6.90;99.90
21244;DHT22;10780;50.942;4.028;2023-03-03T12:13:02;6.90;99.90
21244;DHT22;10780;50.942;4.028;2023-03-03T12:15:51;6.90;99.90
21244;DHT22;10780;50.942;4.028;2023-03-03T12:18:45;7.00;99.90
21244;DHT22;10780;50.942;4.028;2023-03-03T12:24:05;7.20;99.90
21244;DHT22;10780;50.942;4.028;2023-03-03T12:27:06;7.30;99.90
21244;DHT22;10780;50.942;4.028;2023-03-03T12:34:41;7.60;99.90
21244;DHT22;10780;50.942;4.028;2023-03-03T12:56:59;7.70;99.90
21244;DHT22;10780;50.942;4.028;2023-03-03T13:04:56;8.20;99.90
21244;DHT22;10780;50.942;4.028;2023-03-03T13:10:35;8.10;99.90
21244;DHT22;10780;50.942;4.028;2023-03-03T13:15:48;7.70;99.90
21244;DHT22;10780;50.942;4.028;2023-03-03T13:18:27;7.80;99.90
21244;DHT22;10780;50.942;4.028;2023-03-03T13:21:01;7.90;99.90
21244;DHT22;10780;50.942;4.028;2023-03-03T13:27:19;7.80;99.90
21244;DHT22;10780;50.942;4.028;2023-03-03T13:30:00;7.90;99.90
21244;DHT22;10780;50.942;4.028;2023-03-03T13:32:34;8.00;99.90
21244;DHT22;10780;50.942;4.028;2023-03-03T13:35:08;8.10;99.90
21244;DHT22;10780;50.942;4.028;2023-03-03T13:37:43;8.30;99.90
21244;DHT22;10780;50.942;4.028;2023-03-03T13:40:18;8.30;99.90
21244;DHT22;10780;50.942;4.028;2023-03-03T13:42:52;8.20;99.90
21244;DHT22;10780;50.942;4.028;2023-03-03T13:51:18;8.10;99.90
21244;DHT22;10780;50.942;4.028;2023-03-03T13:56:31;8.00;99.90
21244;DHT22;10780;50.942;4.028;2023-03-03T14:01:43;8.50;99.90
21244;DHT22;10780;50.942;4.028;2023-03-03T14:07:26;8.70;99.90
21244;DHT22;10780;50.942;4.028;2023-03-03T14:10:02;8.20;99.90
21244;DHT22;10780;50.942;4.028;2023-03-03T14:15:27;8.10;99.90
21244;DHT22;10780;50.942;4.028;2023-03-03T14:18:27;8.10;99.90
21244;DHT22;10780;50.942;4.028;2023-03-03T14:21:20;8.20;99.90
21244;DHT22;10780;50.942;4.028;2023-03-03T14:26:12;8.30;99.90
21244;DHT22;10780;50.942;4.028;2023-03-03T14:28:45;8.20;99.90
21244;DHT22;10780;50.942;4.028;2023-03-03T14:33:43;8.30;99.90
21244;DHT22;10780;50.942;4.028;2023-03-03T14:36:12;8.40;99.90
21244;DHT22;10780;50.942;4.028;2023-03-03T14:38:43;8.50;99.90
21244;DHT22;10780;50.942;4.028;2023-03-03T14:43:38;8.60;99.90
21244;DHT22;10780;50.942;4.028;2023-03-03T14:48:56;8.50;99.90
21244;DHT22;10780;50.942;4.028;2023-03-03T14:51:30;8.60;99.90
21244;DHT22;10780;50.942;4.028;2023-03-03T14:53:57;8.70;99.90
21244;DHT22;10780;50.942;4.028;2023-03-03T14:56:36;8.90;99.90
21244;DHT22;10780;50.942;4.028;2023-03-03T14:59:19;8.70;99.90
21244;DHT22;10780;50.942;4.028;2023-03-03T15:01:45;8.60;99.90
21244;DHT22;10780;50.942;4.028;2023-03-03T15:06:46;9.00;99.90
21244;DHT22;10780;50.942;4.028;2023-03-03T15:09:32;9.10;99.90
21244;DHT22;10780;50.942;4.028;2023-03-03T15:12:02;9.20;99.90
21244;DHT22;10780;50.942;4.028;2023-03-03T15:14:44;9.20;99.90
21244;DHT22;10780;50.942;4.028;2023-03-03T15:22:55;8.80;99.90
21244;DHT22;10780;50.942;4.028;2023-03-03T15:25:32;8.90;99.90
21244;DHT22;10780;50.942;4.028;2023-03-03T15:28:50;9.00;99.90
21244;DHT22;10780;50.942;4.028;2023-03-03T15:36:46;8.90;99.90
21244;DHT22;10780;50.942;4.028;2023-03-03T15:42:22;8.90;99.90
21244;DHT22;10780;50.942;4.028;2023-03-03T15:47:37;9.10;99.90
21244;DHT22;10780;50.942;4.028;2023-03-03T15:58:32;9.00;99.90
21244;DHT22;10780;50.942;4.028;2023-03-03T16:01:14;9.00;99.90
21244;DHT22;10780;50.942;4.028;2023-03-03T16:03:46;9.00;99.90
21244;DHT22;10780;50.942;4.028;2023-03-03T16:15:36;8.70;99.90
21244;DHT22;10780;50.942;4.028;2023-03-03T16:21:01;8.40;99.90
21244;DHT22;10780;50.942;4.028;2023-03-03T16:26:32;8.50;99.90
21244;DHT22;10780;50.942;4.028;2023-03-03T16:31:48;8.90;99.90
21244;DHT22;10780;50.942;4.028;2023-03-03T16:34:21;9.20;99.90
21244;DHT22;10780;50.942;4.028;2023-03-03T16:37:11;9.40;99.90
21244;DHT22;10780;50.942;4.028;2023-03-03T16:40:01;9.30;99.90
21244;DHT22;10780;50.942;4.028;2023-03-03T16:42:29;9.10;99.90
21244;DHT22;10780;50.942;4.028;2023-03-03T16:53:47;8.60;99.90
21244;DHT22;10780;50.942;4.028;2023-03-03T16:56:43;8.70;99.90
21244;DHT22;10780;50.942;4.028;2023-03-03T17:04:32;8.60;99.90
21244;DHT22;10780;50.942;4.028;2023-03-03T17:07:18;8.60;99.90
21244;DHT22;10780;50.942;4.028;2023-03-03T17:15:12;8.30;99.90
21244;DHT22;10780;50.942;4.028;2023-03-03T17:20:43;7.80;99.90
21244;DHT22;10780;50.942;4.028;2023-03-03T17:32:01;7.90;99.90
21244;DHT22;10780;50.942;4.028;2023-03-03T17:37:25;8.10;99.90
21244;DHT22;10780;50.942;4.028;2023-03-03T17:45:15;8.30;99.90
21244;DHT22;10780;50.942;4.028;2023-03-03T18:01:00;8.10;99.90
21244;DHT22;10780;50.942;4.028;2023-03-03T18:15:02;8.30;99.90
21244;DHT22;10780;50.942;4.028;2023-03-03T18:22:49;8.10;99.90
21244;DHT22;10780;50.942;4.028;2023-03-03T18:25:24;8.00;99.90
21244;DHT22;10780;50.942;4.028;2023-03-03T18:33:15;8.00;99.90
21244;DHT22;10780;50.942;4.028;2023-03-03T18:35:43;8.00;99.90
21244;DHT22;10780;50.942;4.028;2023-03-03T18:41:10;7.90;99.90
21244;DHT22;10780;50.942;4.028;2023-03-03T18:49:05;8.10;99.90
21244;DHT22;10780;50.942;4.028;2023-03-03T18:57:10;7.60;99.90
21244;DHT22;10780;50.942;4.028;2023-03-03T19:02:19;7.60;99.90
21244;DHT22;10780;50.942;4.028;2023-03-03T19:04:54;7.60;99.90
21244;DHT22;10780;50.942;4.028;2023-03-03T19:08:15;7.60;99.90
21244;DHT22;10780;50.942;4.028;2023-03-03T19:12:47;7.50;99.90
21244;DHT22;10780;50.942;4.028;2023-03-03T19:18:22;7.40;99.90
21244;DHT22;10780;50.942;4.028;2023-03-03T19:28:56;7.10;99.90
21244;DHT22;10780;50.942;4.028;2023-03-03T19:34:09;7.10;99.90
21244;DHT22;10780;50.942;4.028;2023-03-03T19:39:47;7.10;99.90
21244;DHT22;10780;50.942;4.028;2023-03-03T19:42:21;7.00;99.90
21244;DHT22;10780;50.942;4.028;2023-03-03T19:45:09;7.00;99.90
21244;DHT22;10780;50.942;4.028;2023-03-03T19:50:38;6.90;99.90
21244;DHT22;10780;50.942;4.028;2023-03-03T19:53:41;6.80;99.90
21244;DHT22;10780;50.942;4.028;2023-03-03T20:07:01;6.70;99.90
21244;DHT22;10780;50.942;4.028;2023-03-03T20:21:15;6.70;99.90
21244;DHT22;10780;50.942;4.028;2023-03-03T20:24:32;6.60;99.90
21244;DHT22;10780;50.942;4.028;2023-03-03T20:32:23;6.70;99.90
21244;DHT22;10780;50.942;4.028;2023-03-03T20:35:37;6.70;99.90
21244;DHT22;10780;50.942;4.028;2023-03-03T20:48:34;6.50;99.90
21244;DHT22;10780;50.942;4.028;2023-03-03T20:53:56;6.40;99.90
21244;DHT22;10780;50.942;4.028;2023-03-03T20:59:18;6.50;99.90
21244;DHT22;10780;50.942;4.028;2023-03-03T21:04:26;6.70;99.90
21244;DHT22;10780;50.942;4.028;2023-03-03T21:06:53;6.70;99.90
21244;DHT22;10780;50.942;4.028;2023-03-03T21:09:27;6.70;99.90
21244;DHT22;10780;50.942;4.028;2023-03-03T21:11:59;6.60;99.90
21244;DHT22;10780;50.942;4.028;2023-03-03T21:14:33;6.60;99.90
21244;DHT22;10780;50.942;4.028;2023-03-03T21:17:09;6.70;99.90
21244;DHT22;10780;50.942;4.028;2023-03-03T21:19:35;6.60;99.90
21244;DHT22;10780;50.942;4.028;2023-03-03T21:22:02;6.70;99.90
21244;DHT22;10780;50.942;4.028;2023-03-03T21:27:33;6.50;99.90
21244;DHT22;10780;50.942;4.028;2023-03-03T21:30:14;6.50;99.90
21244;DHT22;10780;50.942;4.028;2023-03-03T21:32:44;6.50;99.90
21244;DHT22;10780;50.942;4.028;2023-03-03T21:35:20;6.60;99.90
21244;DHT22;10780;50.942;4.028;2023-03-03T21:37:54;6.60;99.90
21244;DHT22;10780;50.942;4.028;2023-03-03T21:40:25;6.60;99.90
21244;DHT22;10780;50.942;4.028;2023-03-03T21:42:53;6.60;99.90
21244;DHT22;10780;50.942;4.028;2023-03-03T21:45:19;6.60;99.90
21244;DHT22;10780;50.942;4.028;2023-03-03T21:47:46;6.60;99.90
21244;DHT22;10780;50.942;4.028;2023-03-03T21:50:13;6.60;99.90
21244;DHT22;10780;50.942;4.028;2023-03-03T21:52:38;6.60;99.90
21244;DHT22;10780;50.942;4.028;2023-03-03T21:55:04;6.50;99.90
21244;DHT22;10780;50.942;4.028;2023-03-03T21:57:30;6.50;99.90
21244;DHT22;10780;50.942;4.028;2023-03-03T21:59:56;6.50;99.90
21244;DHT22;10780;50.942;4.028;2023-03-03T22:02:21;6.60;99.90
21244;DHT22;10780;50.942;4.028;2023-03-03T22:04:47;6.50;99.90
21244;DHT22;10780;50.942;4.028;2023-03-03T22:07:13;6.50;99.90
21244;DHT22;10780;50.942;4.028;2023-03-03T22:09:39;6.50;99.90
21244;DHT22;10780;50.942;4.028;2023-03-03T22:12:05;6.50;99.90
21244;DHT22;10780;50.942;4.028;2023-03-03T22:14:31;6.60;99.90
21244;DHT22;10780;50.942;4.028;2023-03-03T22:16:57;6.80;99.90
21244;DHT22;10780;50.942;4.028;2023-03-03T22:19:22;6.70;99.90
21244;DHT22;10780;50.942;4.028;2023-03-03T22:21:48;6.80;99.90
21244;DHT22;10780;50.942;4.028;2023-03-03T22:24:15;7.00;99.90
21244;DHT22;10780;50.942;4.028;2023-03-03T22:26:41;7.00;99.90
21244;DHT22;10780;50.942;4.028;2023-03-03T22:29:06;7.10;99.90
21244;DHT22;10780;50.942;4.028;2023-03-03T22:31:32;7.10;99.90
21244;DHT22;10780;50.942;4.028;2023-03-03T22:33:58;6.90;99.90
21244;DHT22;10780;50.942;4.028;2023-03-03T22:36:23;7.00;99.90
21244;DHT22;10780;50.942;4.028;2023-03-03T22:38:49;6.90;99.90
21244;DHT22;10780;50.942;4.028;2023-03-03T22:41:15;7.00;99.90
21244;DHT22;10780;50.942;4.028;2023-03-03T22:43:41;6.90;99.90
21244;DHT22;10780;50.942;4.028;2023-03-03T22:46:07;6.90;99.90
21244;DHT22;10780;50.942;4.028;2023-03-03T22:48:33;6.90;99.90